Terminal Aerodrome Forecast
Issued by NWS Twin Cities, MN

Home | Current Version | Previous Version | Text Only | Print | Product List | Glossary Off
Versions: 1 2 3 4 5 6 7 8 9 10 11 12 13 14

000
FTUS43 KMPX 211138
TAFSTC
TAF
KSTC 211138Z 2112/2212 11004KT P6SM SCT150
     FM211500 14010KT P6SM BKN120
     FM212300 16009KT P6SM BKN060
     FM220400 22004KT 6SM BR BKN030
     FM220800 26004KT 5SM BR SCT045
     FM221000 32005KT 2SM BR SCT080=

USA.gov is the U.S. government's official web portal to all federal, state and local government web resources and services.